Amf Ohare, Illinois
Current Conditions -  °F | °C
As of 1:51 PM on Sunday 23 Nov 2014 (Local Time) from KORD Reporting Station
Light Rain Light Rain  
Wind Chill: 51°   Ceiling: 1400
Heat Index: 51°   Visibility: 8mi
Dew Point: 48°   Wind: 10mph
Humidity: 89%   Direction: 150°SSE
Pressure: 29.52"   Gusts: NA
Location:  41.968°N, 87.8912°W
Report Text: KORD 231951Z 15009KT 8SM -RA BKN014 OVC085 11/09 A2952 RMK AO2 RAB09 SLP998 P0000 T01060089
Loading
Personal Weather Stations






























Interactive Weather Map New forecast layout! Learn more

10-Day Weather Forecast

Advertisements
Track Severe Weather on mobile